sensor_id;sensor_type;location;lat;lon;timestamp;temperature;humidity
42683;DHT22;28293;50.930;3.464;2023-08-31T00:00:34;14.00;91.00
42683;DHT22;28293;50.930;3.464;2023-08-31T00:03:00;14.00;90.90
42683;DHT22;28293;50.930;3.464;2023-08-31T00:05:25;13.90;90.90
42683;DHT22;28293;50.930;3.464;2023-08-31T00:07:56;13.90;90.90
42683;DHT22;28293;50.930;3.464;2023-08-31T00:10:21;13.80;91.00
42683;DHT22;28293;50.930;3.464;2023-08-31T00:12:47;13.80;91.10
42683;DHT22;28293;50.930;3.464;2023-08-31T00:15:14;13.80;91.10
42683;DHT22;28293;50.930;3.464;2023-08-31T00:17:40;13.80;91.10
42683;DHT22;28293;50.930;3.464;2023-08-31T00:20:07;13.70;91.00
42683;DHT22;28293;50.930;3.464;2023-08-31T00:22:34;13.70;91.10
42683;DHT22;28293;50.930;3.464;2023-08-31T00:24:59;13.60;91.10
42683;DHT22;28293;50.930;3.464;2023-08-31T00:27:25;13.60;91.10
42683;DHT22;28293;50.930;3.464;2023-08-31T00:29:50;13.60;91.00
42683;DHT22;28293;50.930;3.464;2023-08-31T00:32:17;13.60;90.90
42683;DHT22;28293;50.930;3.464;2023-08-31T00:34:44;13.60;90.80
42683;DHT22;28293;50.930;3.464;2023-08-31T00:37:10;13.50;90.70
42683;DHT22;28293;50.930;3.464;2023-08-31T00:39:35;13.50;90.70
42683;DHT22;28293;50.930;3.464;2023-08-31T00:42:01;13.50;90.80
42683;DHT22;28293;50.930;3.464;2023-08-31T00:44:27;13.50;90.90
42683;DHT22;28293;50.930;3.464;2023-08-31T00:46:52;13.50;90.90
42683;DHT22;28293;50.930;3.464;2023-08-31T00:49:18;13.50;91.00
42683;DHT22;28293;50.930;3.464;2023-08-31T00:51:45;13.50;91.30
42683;DHT22;28293;50.930;3.464;2023-08-31T00:54:17;13.50;91.40
42683;DHT22;28293;50.930;3.464;2023-08-31T00:56:43;13.50;91.50
42683;DHT22;28293;50.930;3.464;2023-08-31T00:59:09;13.50;91.60
42683;DHT22;28293;50.930;3.464;2023-08-31T01:01:43;13.60;91.60
42683;DHT22;28293;50.930;3.464;2023-08-31T01:04:25;13.60;91.50
42683;DHT22;28293;50.930;3.464;2023-08-31T01:12:13;13.60;91.80
42683;DHT22;28293;50.930;3.464;2023-08-31T01:14:56;13.60;91.80
42683;DHT22;28293;50.930;3.464;2023-08-31T01:17:26;13.60;91.80
42683;DHT22;28293;50.930;3.464;2023-08-31T01:19:55;13.60;91.80
42683;DHT22;28293;50.930;3.464;2023-08-31T01:22:48;13.60;91.90
42683;DHT22;28293;50.930;3.464;2023-08-31T01:25:16;13.50;91.90
42683;DHT22;28293;50.930;3.464;2023-08-31T01:27:43;13.50;91.90
42683;DHT22;28293;50.930;3.464;2023-08-31T01:30:09;13.50;92.00
42683;DHT22;28293;50.930;3.464;2023-08-31T01:32:34;13.50;92.00
42683;DHT22;28293;50.930;3.464;2023-08-31T01:35:01;13.50;92.00
42683;DHT22;28293;50.930;3.464;2023-08-31T01:40:23;13.60;92.00
42683;DHT22;28293;50.930;3.464;2023-08-31T01:42:50;13.60;92.00
42683;DHT22;28293;50.930;3.464;2023-08-31T01:45:21;13.60;92.10
42683;DHT22;28293;50.930;3.464;2023-08-31T01:47:48;13.60;92.10
42683;DHT22;28293;50.930;3.464;2023-08-31T01:50:13;13.60;92.00
42683;DHT22;28293;50.930;3.464;2023-08-31T01:52:39;13.70;92.00
42683;DHT22;28293;50.930;3.464;2023-08-31T01:55:05;13.70;92.00
42683;DHT22;28293;50.930;3.464;2023-08-31T01:57:32;13.80;92.00
42683;DHT22;28293;50.930;3.464;2023-08-31T01:59:58;13.70;91.90
42683;DHT22;28293;50.930;3.464;2023-08-31T02:02:24;13.70;91.90
42683;DHT22;28293;50.930;3.464;2023-08-31T02:04:49;13.80;92.00
42683;DHT22;28293;50.930;3.464;2023-08-31T02:07:18;13.80;91.90
42683;DHT22;28293;50.930;3.464;2023-08-31T02:09:44;13.80;91.90
42683;DHT22;28293;50.930;3.464;2023-08-31T02:12:10;13.70;91.70
42683;DHT22;28293;50.930;3.464;2023-08-31T02:14:36;13.70;91.80
42683;DHT22;28293;50.930;3.464;2023-08-31T02:17:02;13.70;91.80
42683;DHT22;28293;50.930;3.464;2023-08-31T02:19:27;13.70;91.80
42683;DHT22;28293;50.930;3.464;2023-08-31T02:21:53;13.70;91.90
42683;DHT22;28293;50.930;3.464;2023-08-31T02:24:20;13.60;91.90
42683;DHT22;28293;50.930;3.464;2023-08-31T02:26:45;13.60;91.90
42683;DHT22;28293;50.930;3.464;2023-08-31T02:29:11;13.60;92.00
42683;DHT22;28293;50.930;3.464;2023-08-31T02:31:36;13.60;92.10
42683;DHT22;28293;50.930;3.464;2023-08-31T02:34:03;13.60;92.10
42683;DHT22;28293;50.930;3.464;2023-08-31T02:36:29;13.60;92.10
42683;DHT22;28293;50.930;3.464;2023-08-31T02:38:56;13.60;92.00
42683;DHT22;28293;50.930;3.464;2023-08-31T02:41:22;13.50;92.10
42683;DHT22;28293;50.930;3.464;2023-08-31T02:43:50;13.50;92.10
42683;DHT22;28293;50.930;3.464;2023-08-31T02:46:16;13.50;92.10
42683;DHT22;28293;50.930;3.464;2023-08-31T02:48:42;13.50;92.20
42683;DHT22;28293;50.930;3.464;2023-08-31T02:51:08;13.50;92.10
42683;DHT22;28293;50.930;3.464;2023-08-31T02:53:33;13.50;92.20
42683;DHT22;28293;50.930;3.464;2023-08-31T02:55:59;13.50;92.20
42683;DHT22;28293;50.930;3.464;2023-08-31T02:58:25;13.50;92.20
42683;DHT22;28293;50.930;3.464;2023-08-31T03:00:51;13.50;92.10
42683;DHT22;28293;50.930;3.464;2023-08-31T03:03:17;13.50;92.10
42683;DHT22;28293;50.930;3.464;2023-08-31T03:05:44;13.40;92.10
42683;DHT22;28293;50.930;3.464;2023-08-31T03:08:09;13.40;92.10
42683;DHT22;28293;50.930;3.464;2023-08-31T03:10:36;13.40;92.10
42683;DHT22;28293;50.930;3.464;2023-08-31T03:13:02;13.40;92.10
42683;DHT22;28293;50.930;3.464;2023-08-31T03:15:28;13.40;92.10
42683;DHT22;28293;50.930;3.464;2023-08-31T03:17:53;13.30;92.20
42683;DHT22;28293;50.930;3.464;2023-08-31T03:20:20;13.30;92.20
42683;DHT22;28293;50.930;3.464;2023-08-31T03:22:45;13.30;92.20
42683;DHT22;28293;50.930;3.464;2023-08-31T03:25:11;13.30;92.30
42683;DHT22;28293;50.930;3.464;2023-08-31T03:27:37;13.30;92.30
42683;DHT22;28293;50.930;3.464;2023-08-31T03:30:03;13.30;92.30
42683;DHT22;28293;50.930;3.464;2023-08-31T03:32:29;13.20;92.30
42683;DHT22;28293;50.930;3.464;2023-08-31T03:34:55;13.20;92.40
42683;DHT22;28293;50.930;3.464;2023-08-31T03:37:20;13.20;92.40
42683;DHT22;28293;50.930;3.464;2023-08-31T03:39:50;13.20;92.40
42683;DHT22;28293;50.930;3.464;2023-08-31T03:42:16;13.20;92.40
42683;DHT22;28293;50.930;3.464;2023-08-31T03:44:42;13.10;92.40
42683;DHT22;28293;50.930;3.464;2023-08-31T03:47:07;13.10;92.50
42683;DHT22;28293;50.930;3.464;2023-08-31T03:49:33;13.10;92.50
42683;DHT22;28293;50.930;3.464;2023-08-31T03:52:00;13.10;92.60
42683;DHT22;28293;50.930;3.464;2023-08-31T03:54:26;13.10;92.60
42683;DHT22;28293;50.930;3.464;2023-08-31T03:56:52;13.10;92.60
42683;DHT22;28293;50.930;3.464;2023-08-31T03:59:17;13.10;92.50
42683;DHT22;28293;50.930;3.464;2023-08-31T04:01:43;13.10;92.60
42683;DHT22;28293;50.930;3.464;2023-08-31T04:04:09;13.10;92.60
42683;DHT22;28293;50.930;3.464;2023-08-31T04:06:35;13.00;92.70
42683;DHT22;28293;50.930;3.464;2023-08-31T04:09:00;13.00;92.70
42683;DHT22;28293;50.930;3.464;2023-08-31T04:11:26;13.00;92.70
42683;DHT22;28293;50.930;3.464;2023-08-31T04:13:52;13.00;92.70
42683;DHT22;28293;50.930;3.464;2023-08-31T04:16:18;12.90;92.70
42683;DHT22;28293;50.930;3.464;2023-08-31T04:18:44;13.00;92.80
42683;DHT22;28293;50.930;3.464;2023-08-31T04:21:17;13.00;92.80
42683;DHT22;28293;50.930;3.464;2023-08-31T04:23:42;13.00;92.70
42683;DHT22;28293;50.930;3.464;2023-08-31T04:26:12;13.00;92.70
42683;DHT22;28293;50.930;3.464;2023-08-31T04:28:39;12.90;92.60
42683;DHT22;28293;50.930;3.464;2023-08-31T04:31:05;12.90;92.50
42683;DHT22;28293;50.930;3.464;2023-08-31T04:33:37;12.90;92.60
42683;DHT22;28293;50.930;3.464;2023-08-31T04:36:04;12.90;92.60
42683;DHT22;28293;50.930;3.464;2023-08-31T04:38:39;12.90;92.60
42683;DHT22;28293;50.930;3.464;2023-08-31T04:41:05;12.80;92.60
42683;DHT22;28293;50.930;3.464;2023-08-31T04:43:31;12.80;92.70
42683;DHT22;28293;50.930;3.464;2023-08-31T04:45:57;12.80;92.70
42683;DHT22;28293;50.930;3.464;2023-08-31T04:48:23;12.80;92.70
42683;DHT22;28293;50.930;3.464;2023-08-31T04:50:48;12.80;92.70
42683;DHT22;28293;50.930;3.464;2023-08-31T04:53:14;12.80;92.60
42683;DHT22;28293;50.930;3.464;2023-08-31T04:55:40;12.80;92.60
42683;DHT22;28293;50.930;3.464;2023-08-31T04:58:05;12.80;92.60
42683;DHT22;28293;50.930;3.464;2023-08-31T05:00:31;12.80;92.50
42683;DHT22;28293;50.930;3.464;2023-08-31T05:02:57;12.80;92.60
42683;DHT22;28293;50.930;3.464;2023-08-31T05:05:23;12.80;92.60
42683;DHT22;28293;50.930;3.464;2023-08-31T05:07:49;12.80;92.50
42683;DHT22;28293;50.930;3.464;2023-08-31T05:10:14;12.80;92.40
42683;DHT22;28293;50.930;3.464;2023-08-31T05:12:40;12.80;92.60
42683;DHT22;28293;50.930;3.464;2023-08-31T05:15:06;12.80;92.60
42683;DHT22;28293;50.930;3.464;2023-08-31T05:17:32;12.80;92.50
42683;DHT22;28293;50.930;3.464;2023-08-31T05:19:58;12.80;92.40
42683;DHT22;28293;50.930;3.464;2023-08-31T05:22:23;12.90;92.40
42683;DHT22;28293;50.930;3.464;2023-08-31T05:24:49;12.90;92.30
42683;DHT22;28293;50.930;3.464;2023-08-31T05:27:15;12.80;92.20
42683;DHT22;28293;50.930;3.464;2023-08-31T05:29:40;12.90;92.20
42683;DHT22;28293;50.930;3.464;2023-08-31T05:32:06;12.90;92.20
42683;DHT22;28293;50.930;3.464;2023-08-31T05:34:32;12.90;92.10
42683;DHT22;28293;50.930;3.464;2023-08-31T05:37:03;12.90;92.10
42683;DHT22;28293;50.930;3.464;2023-08-31T05:39:30;13.00;91.90
42683;DHT22;28293;50.930;3.464;2023-08-31T05:41:56;13.00;92.00
42683;DHT22;28293;50.930;3.464;2023-08-31T05:44:22;13.00;91.90
42683;DHT22;28293;50.930;3.464;2023-08-31T05:46:47;13.10;91.80
42683;DHT22;28293;50.930;3.464;2023-08-31T05:49:13;13.10;91.80
42683;DHT22;28293;50.930;3.464;2023-08-31T05:51:39;13.10;91.80
42683;DHT22;28293;50.930;3.464;2023-08-31T05:54:04;13.10;91.70
42683;DHT22;28293;50.930;3.464;2023-08-31T05:56:30;13.20;91.60
42683;DHT22;28293;50.930;3.464;2023-08-31T05:58:56;13.30;91.50
42683;DHT22;28293;50.930;3.464;2023-08-31T06:01:21;13.30;91.40
42683;DHT22;28293;50.930;3.464;2023-08-31T06:03:48;13.40;91.40
42683;DHT22;28293;50.930;3.464;2023-08-31T06:06:14;13.40;91.30
42683;DHT22;28293;50.930;3.464;2023-08-31T06:08:40;13.40;91.20
42683;DHT22;28293;50.930;3.464;2023-08-31T06:11:08;13.50;91.30
42683;DHT22;28293;50.930;3.464;2023-08-31T06:13:33;13.60;91.20
42683;DHT22;28293;50.930;3.464;2023-08-31T06:15:59;13.60;91.10
42683;DHT22;28293;50.930;3.464;2023-08-31T06:18:25;13.70;91.10
42683;DHT22;28293;50.930;3.464;2023-08-31T06:20:51;13.70;90.90
42683;DHT22;28293;50.930;3.464;2023-08-31T06:23:17;13.80;90.90
42683;DHT22;28293;50.930;3.464;2023-08-31T06:25:43;13.80;90.80
42683;DHT22;28293;50.930;3.464;2023-08-31T06:28:11;13.80;90.80
42683;DHT22;28293;50.930;3.464;2023-08-31T06:30:37;13.90;90.60
42683;DHT22;28293;50.930;3.464;2023-08-31T06:33:04;14.00;90.80
42683;DHT22;28293;50.930;3.464;2023-08-31T06:35:30;14.10;90.50
42683;DHT22;28293;50.930;3.464;2023-08-31T06:37:56;14.10;90.40
42683;DHT22;28293;50.930;3.464;2023-08-31T06:40:23;14.20;90.20
42683;DHT22;28293;50.930;3.464;2023-08-31T06:42:49;14.20;90.10
42683;DHT22;28293;50.930;3.464;2023-08-31T06:45:15;14.30;90.00
42683;DHT22;28293;50.930;3.464;2023-08-31T06:47:40;14.30;89.90
42683;DHT22;28293;50.930;3.464;2023-08-31T06:50:06;14.40;89.80
42683;DHT22;28293;50.930;3.464;2023-08-31T06:52:32;14.50;89.80
42683;DHT22;28293;50.930;3.464;2023-08-31T06:54:59;14.50;89.60
42683;DHT22;28293;50.930;3.464;2023-08-31T06:57:26;14.60;89.70
42683;DHT22;28293;50.930;3.464;2023-08-31T06:59:53;14.70;89.60
42683;DHT22;28293;50.930;3.464;2023-08-31T07:02:18;14.80;89.30
42683;DHT22;28293;50.930;3.464;2023-08-31T07:04:45;15.00;89.20
42683;DHT22;28293;50.930;3.464;2023-08-31T07:07:11;15.10;88.90
42683;DHT22;28293;50.930;3.464;2023-08-31T07:09:42;15.30;88.40
42683;DHT22;28293;50.930;3.464;2023-08-31T07:12:09;15.40;87.60
42683;DHT22;28293;50.930;3.464;2023-08-31T07:14:35;15.60;87.20
42683;DHT22;28293;50.930;3.464;2023-08-31T07:17:00;15.60;86.60
42683;DHT22;28293;50.930;3.464;2023-08-31T07:19:26;15.70;86.60
42683;DHT22;28293;50.930;3.464;2023-08-31T07:21:52;15.90;86.30
42683;DHT22;28293;50.930;3.464;2023-08-31T07:24:20;16.00;86.20
42683;DHT22;28293;50.930;3.464;2023-08-31T07:26:47;16.10;85.40
42683;DHT22;28293;50.930;3.464;2023-08-31T07:29:13;16.10;85.30
42683;DHT22;28293;50.930;3.464;2023-08-31T07:31:38;16.20;85.40
42683;DHT22;28293;50.930;3.464;2023-08-31T07:34:04;16.40;84.80
42683;DHT22;28293;50.930;3.464;2023-08-31T07:36:30;16.50;84.20
42683;DHT22;28293;50.930;3.464;2023-08-31T07:38:55;16.60;83.50
42683;DHT22;28293;50.930;3.464;2023-08-31T07:41:21;16.70;83.00
42683;DHT22;28293;50.930;3.464;2023-08-31T07:43:47;16.80;83.20
42683;DHT22;28293;50.930;3.464;2023-08-31T07:46:15;17.00;83.00
42683;DHT22;28293;50.930;3.464;2023-08-31T07:48:41;17.10;82.60
42683;DHT22;28293;50.930;3.464;2023-08-31T07:51:07;17.20;81.30
42683;DHT22;28293;50.930;3.464;2023-08-31T07:53:33;17.40;81.80
42683;DHT22;28293;50.930;3.464;2023-08-31T07:55:59;17.70;81.60
42683;DHT22;28293;50.930;3.464;2023-08-31T07:58:25;17.90;80.80
42683;DHT22;28293;50.930;3.464;2023-08-31T08:00:54;18.10;79.80
42683;DHT22;28293;50.930;3.464;2023-08-31T08:03:21;18.10;79.50
42683;DHT22;28293;50.930;3.464;2023-08-31T08:05:47;18.20;79.90
42683;DHT22;28293;50.930;3.464;2023-08-31T08:08:13;18.40;79.20
42683;DHT22;28293;50.930;3.464;2023-08-31T08:10:39;18.60;79.40
42683;DHT22;28293;50.930;3.464;2023-08-31T08:13:04;18.30;78.60
42683;DHT22;28293;50.930;3.464;2023-08-31T08:15:30;18.30;78.40
42683;DHT22;28293;50.930;3.464;2023-08-31T08:17:57;18.20;78.20
42683;DHT22;28293;50.930;3.464;2023-08-31T08:20:23;18.40;79.10
42683;DHT22;28293;50.930;3.464;2023-08-31T08:22:49;18.50;78.10
42683;DHT22;28293;50.930;3.464;2023-08-31T08:25:21;18.50;78.30
42683;DHT22;28293;50.930;3.464;2023-08-31T08:27:48;18.60;77.50
42683;DHT22;28293;50.930;3.464;2023-08-31T08:30:14;18.60;77.70
42683;DHT22;28293;50.930;3.464;2023-08-31T08:32:41;18.50;77.80
42683;DHT22;28293;50.930;3.464;2023-08-31T08:35:07;18.30;78.20
42683;DHT22;28293;50.930;3.464;2023-08-31T08:37:33;18.20;79.20
42683;DHT22;28293;50.930;3.464;2023-08-31T08:39:59;18.20;79.10
42683;DHT22;28293;50.930;3.464;2023-08-31T08:42:25;18.10;79.70
42683;DHT22;28293;50.930;3.464;2023-08-31T08:44:51;18.00;79.50
42683;DHT22;28293;50.930;3.464;2023-08-31T08:47:20;18.10;79.30
42683;DHT22;28293;50.930;3.464;2023-08-31T08:49:47;18.10;80.00
42683;DHT22;28293;50.930;3.464;2023-08-31T08:52:14;18.40;79.20
42683;DHT22;28293;50.930;3.464;2023-08-31T08:54:40;18.70;78.10
42683;DHT22;28293;50.930;3.464;2023-08-31T08:57:06;19.00;77.60
42683;DHT22;28293;50.930;3.464;2023-08-31T08:59:32;19.20;76.60
42683;DHT22;28293;50.930;3.464;2023-08-31T09:01:57;19.60;75.90
42683;DHT22;28293;50.930;3.464;2023-08-31T09:04:23;19.90;75.30
42683;DHT22;28293;50.930;3.464;2023-08-31T09:06:52;20.00;74.90
42683;DHT22;28293;50.930;3.464;2023-08-31T09:09:17;20.20;74.60
42683;DHT22;28293;50.930;3.464;2023-08-31T09:11:45;20.40;73.00
42683;DHT22;28293;50.930;3.464;2023-08-31T09:14:18;20.40;74.30
42683;DHT22;28293;50.930;3.464;2023-08-31T09:16:48;20.50;73.10
42683;DHT22;28293;50.930;3.464;2023-08-31T09:19:24;20.60;73.40
42683;DHT22;28293;50.930;3.464;2023-08-31T09:21:55;20.60;71.80
42683;DHT22;28293;50.930;3.464;2023-08-31T09:24:22;20.50;72.50
42683;DHT22;28293;50.930;3.464;2023-08-31T09:26:53;20.20;73.10
42683;DHT22;28293;50.930;3.464;2023-08-31T09:29:19;20.00;72.70
42683;DHT22;28293;50.930;3.464;2023-08-31T09:31:45;20.10;72.70
42683;DHT22;28293;50.930;3.464;2023-08-31T09:34:13;20.60;73.10
42683;DHT22;28293;50.930;3.464;2023-08-31T09:36:39;20.90;71.10
42683;DHT22;28293;50.930;3.464;2023-08-31T09:39:09;21.30;70.30
42683;DHT22;28293;50.930;3.464;2023-08-31T09:41:35;21.10;69.60
42683;DHT22;28293;50.930;3.464;2023-08-31T09:44:19;21.30;69.90
42683;DHT22;28293;50.930;3.464;2023-08-31T09:46:45;21.40;69.20
42683;DHT22;28293;50.930;3.464;2023-08-31T09:49:16;21.20;68.70
42683;DHT22;28293;50.930;3.464;2023-08-31T09:51:44;21.50;67.90
42683;DHT22;28293;50.930;3.464;2023-08-31T09:54:14;21.60;67.40
42683;DHT22;28293;50.930;3.464;2023-08-31T09:56:41;21.10;67.50
42683;DHT22;28293;50.930;3.464;2023-08-31T09:59:08;20.90;67.40
42683;DHT22;28293;50.930;3.464;2023-08-31T10:01:34;20.90;67.30
42683;DHT22;28293;50.930;3.464;2023-08-31T10:04:00;20.90;68.00
42683;DHT22;28293;50.930;3.464;2023-08-31T10:06:26;20.90;69.00
42683;DHT22;28293;50.930;3.464;2023-08-31T10:08:53;20.50;67.60
42683;DHT22;28293;50.930;3.464;2023-08-31T10:11:20;20.50;67.80
42683;DHT22;28293;50.930;3.464;2023-08-31T10:13:47;20.60;67.60
42683;DHT22;28293;50.930;3.464;2023-08-31T10:16:14;20.80;67.30
42683;DHT22;28293;50.930;3.464;2023-08-31T10:18:41;20.70;67.30
42683;DHT22;28293;50.930;3.464;2023-08-31T10:21:07;20.80;67.70
42683;DHT22;28293;50.930;3.464;2023-08-31T10:23:33;20.70;67.00
42683;DHT22;28293;50.930;3.464;2023-08-31T10:26:02;20.50;66.90
42683;DHT22;28293;50.930;3.464;2023-08-31T10:28:29;20.40;67.20
42683;DHT22;28293;50.930;3.464;2023-08-31T10:31:06;20.60;66.40
42683;DHT22;28293;50.930;3.464;2023-08-31T10:33:47;20.80;66.60
42683;DHT22;28293;50.930;3.464;2023-08-31T10:36:20;21.00;65.30
42683;DHT22;28293;50.930;3.464;2023-08-31T10:39:10;21.30;63.80
42683;DHT22;28293;50.930;3.464;2023-08-31T10:41:36;21.00;65.20
42683;DHT22;28293;50.930;3.464;2023-08-31T10:44:02;21.00;64.80
42683;DHT22;28293;50.930;3.464;2023-08-31T10:46:43;20.80;64.80
42683;DHT22;28293;50.930;3.464;2023-08-31T10:51:35;21.10;66.00
42683;DHT22;28293;50.930;3.464;2023-08-31T10:59:16;21.10;64.20
42683;DHT22;28293;50.930;3.464;2023-08-31T11:01:54;21.40;63.80
42683;DHT22;28293;50.930;3.464;2023-08-31T11:04:22;21.60;62.40
42683;DHT22;28293;50.930;3.464;2023-08-31T11:06:48;21.40;63.90
42683;DHT22;28293;50.930;3.464;2023-08-31T11:09:21;21.50;64.40
42683;DHT22;28293;50.930;3.464;2023-08-31T11:11:47;21.30;63.50
42683;DHT22;28293;50.930;3.464;2023-08-31T11:14:15;21.20;64.60
42683;DHT22;28293;50.930;3.464;2023-08-31T11:16:42;21.10;64.70
42683;DHT22;28293;50.930;3.464;2023-08-31T11:19:08;20.90;65.10
42683;DHT22;28293;50.930;3.464;2023-08-31T11:21:37;21.10;65.30
42683;DHT22;28293;50.930;3.464;2023-08-31T11:24:03;21.10;65.10
42683;DHT22;28293;50.930;3.464;2023-08-31T11:26:31;21.00;64.90
42683;DHT22;28293;50.930;3.464;2023-08-31T11:28:57;21.00;65.10
42683;DHT22;28293;50.930;3.464;2023-08-31T11:31:26;21.10;65.60
42683;DHT22;28293;50.930;3.464;2023-08-31T11:33:54;21.10;64.20
42683;DHT22;28293;50.930;3.464;2023-08-31T11:36:21;21.20;63.60
42683;DHT22;28293;50.930;3.464;2023-08-31T11:38:48;21.10;63.80
42683;DHT22;28293;50.930;3.464;2023-08-31T11:41:14;21.10;64.50
42683;DHT22;28293;50.930;3.464;2023-08-31T11:43:41;21.10;64.00
42683;DHT22;28293;50.930;3.464;2023-08-31T11:46:07;21.10;63.50
42683;DHT22;28293;50.930;3.464;2023-08-31T11:48:34;21.10;62.90
42683;DHT22;28293;50.930;3.464;2023-08-31T11:51:00;21.10;63.30
42683;DHT22;28293;50.930;3.464;2023-08-31T11:53:26;21.10;61.90
42683;DHT22;28293;50.930;3.464;2023-08-31T11:55:53;21.30;62.50
42683;DHT22;28293;50.930;3.464;2023-08-31T11:58:20;21.20;60.50
42683;DHT22;28293;50.930;3.464;2023-08-31T12:00:54;21.30;61.10
42683;DHT22;28293;50.930;3.464;2023-08-31T12:03:20;21.20;61.60
42683;DHT22;28293;50.930;3.464;2023-08-31T12:05:47;21.20;61.10
42683;DHT22;28293;50.930;3.464;2023-08-31T12:08:16;21.40;60.70
42683;DHT22;28293;50.930;3.464;2023-08-31T12:10:42;21.60;60.40
42683;DHT22;28293;50.930;3.464;2023-08-31T12:13:08;21.60;59.70
42683;DHT22;28293;50.930;3.464;2023-08-31T12:15:34;21.60;59.90
42683;DHT22;28293;50.930;3.464;2023-08-31T12:18:10;21.60;58.90
42683;DHT22;28293;50.930;3.464;2023-08-31T12:20:46;21.60;60.10
42683;DHT22;28293;50.930;3.464;2023-08-31T12:23:12;21.60;59.20
42683;DHT22;28293;50.930;3.464;2023-08-31T12:28:13;21.10;58.70
42683;DHT22;28293;50.930;3.464;2023-08-31T12:30:42;21.10;58.10
42683;DHT22;28293;50.930;3.464;2023-08-31T12:33:09;21.10;58.30
42683;DHT22;28293;50.930;3.464;2023-08-31T12:35:35;21.00;58.60
42683;DHT22;28293;50.930;3.464;2023-08-31T12:38:01;21.00;58.90
42683;DHT22;28293;50.930;3.464;2023-08-31T12:40:27;21.00;59.20
42683;DHT22;28293;50.930;3.464;2023-08-31T12:42:53;21.10;59.60
42683;DHT22;28293;50.930;3.464;2023-08-31T12:45:18;21.10;58.80
42683;DHT22;28293;50.930;3.464;2023-08-31T12:47:44;21.30;59.60
42683;DHT22;28293;50.930;3.464;2023-08-31T12:50:10;21.40;59.10
42683;DHT22;28293;50.930;3.464;2023-08-31T12:52:35;21.40;59.20
42683;DHT22;28293;50.930;3.464;2023-08-31T12:55:01;21.60;59.40
42683;DHT22;28293;50.930;3.464;2023-08-31T12:57:27;21.70;58.40
42683;DHT22;28293;50.930;3.464;2023-08-31T12:59:53;21.70;56.70
42683;DHT22;28293;50.930;3.464;2023-08-31T13:02:18;21.80;57.30
42683;DHT22;28293;50.930;3.464;2023-08-31T13:04:45;21.60;58.40
42683;DHT22;28293;50.930;3.464;2023-08-31T13:07:11;21.60;58.60
42683;DHT22;28293;50.930;3.464;2023-08-31T13:09:37;21.50;58.60
42683;DHT22;28293;50.930;3.464;2023-08-31T13:12:02;21.50;59.30
42683;DHT22;28293;50.930;3.464;2023-08-31T13:14:29;21.50;59.10
42683;DHT22;28293;50.930;3.464;2023-08-31T13:16:54;21.60;59.00
42683;DHT22;28293;50.930;3.464;2023-08-31T13:19:21;21.80;58.70
42683;DHT22;28293;50.930;3.464;2023-08-31T13:21:47;21.60;58.20
42683;DHT22;28293;50.930;3.464;2023-08-31T13:24:13;21.70;59.20
42683;DHT22;28293;50.930;3.464;2023-08-31T13:26:39;21.70;59.00
42683;DHT22;28293;50.930;3.464;2023-08-31T13:29:07;21.60;59.00
42683;DHT22;28293;50.930;3.464;2023-08-31T13:31:32;21.60;59.50
42683;DHT22;28293;50.930;3.464;2023-08-31T13:33:59;21.60;59.70
42683;DHT22;28293;50.930;3.464;2023-08-31T13:36:25;21.60;59.80
42683;DHT22;28293;50.930;3.464;2023-08-31T13:38:50;21.40;59.70
42683;DHT22;28293;50.930;3.464;2023-08-31T13:41:16;21.20;60.00
42683;DHT22;28293;50.930;3.464;2023-08-31T13:43:43;21.30;60.70
42683;DHT22;28293;50.930;3.464;2023-08-31T13:46:08;21.30;60.50
42683;DHT22;28293;50.930;3.464;2023-08-31T13:48:34;21.30;60.60
42683;DHT22;28293;50.930;3.464;2023-08-31T13:51:00;21.50;60.70
42683;DHT22;28293;50.930;3.464;2023-08-31T13:53:25;21.60;60.70
42683;DHT22;28293;50.930;3.464;2023-08-31T13:55:51;21.60;60.90
42683;DHT22;28293;50.930;3.464;2023-08-31T13:58:17;21.60;60.80
42683;DHT22;28293;50.930;3.464;2023-08-31T14:00:42;21.70;59.90
42683;DHT22;28293;50.930;3.464;2023-08-31T14:03:08;21.70;60.00
42683;DHT22;28293;50.930;3.464;2023-08-31T14:05:34;21.90;60.60
42683;DHT22;28293;50.930;3.464;2023-08-31T14:08:00;21.80;61.00
42683;DHT22;28293;50.930;3.464;2023-08-31T14:10:31;21.80;59.70
42683;DHT22;28293;50.930;3.464;2023-08-31T14:12:58;21.80;59.80
42683;DHT22;28293;50.930;3.464;2023-08-31T14:15:23;21.50;60.60
42683;DHT22;28293;50.930;3.464;2023-08-31T14:17:52;21.60;61.10
42683;DHT22;28293;50.930;3.464;2023-08-31T14:20:18;21.50;60.70
42683;DHT22;28293;50.930;3.464;2023-08-31T14:22:44;21.50;60.20
42683;DHT22;28293;50.930;3.464;2023-08-31T14:25:14;21.40;60.20
42683;DHT22;28293;50.930;3.464;2023-08-31T14:27:40;21.30;59.90
42683;DHT22;28293;50.930;3.464;2023-08-31T14:30:06;21.40;60.40
42683;DHT22;28293;50.930;3.464;2023-08-31T14:32:32;21.30;60.80
42683;DHT22;28293;50.930;3.464;2023-08-31T14:34:58;21.30;60.90
42683;DHT22;28293;50.930;3.464;2023-08-31T14:37:24;21.50;61.80
42683;DHT22;28293;50.930;3.464;2023-08-31T14:39:50;21.60;61.20
42683;DHT22;28293;50.930;3.464;2023-08-31T14:42:15;21.60;61.40
42683;DHT22;28293;50.930;3.464;2023-08-31T14:44:43;21.60;61.80
42683;DHT22;28293;50.930;3.464;2023-08-31T14:47:09;21.30;61.70
42683;DHT22;28293;50.930;3.464;2023-08-31T14:49:38;21.10;61.50
42683;DHT22;28293;50.930;3.464;2023-08-31T14:52:04;21.00;62.10
42683;DHT22;28293;50.930;3.464;2023-08-31T14:54:31;21.00;62.50
42683;DHT22;28293;50.930;3.464;2023-08-31T14:56:58;21.00;62.90
42683;DHT22;28293;50.930;3.464;2023-08-31T14:59:23;21.00;62.00
42683;DHT22;28293;50.930;3.464;2023-08-31T15:01:49;21.00;62.30
42683;DHT22;28293;50.930;3.464;2023-08-31T15:04:15;20.90;60.80
42683;DHT22;28293;50.930;3.464;2023-08-31T15:06:41;20.70;61.70
42683;DHT22;28293;50.930;3.464;2023-08-31T15:09:07;20.80;61.00
42683;DHT22;28293;50.930;3.464;2023-08-31T15:11:32;20.70;61.40
42683;DHT22;28293;50.930;3.464;2023-08-31T15:13:58;20.70;61.70
42683;DHT22;28293;50.930;3.464;2023-08-31T15:16:24;20.60;61.90
42683;DHT22;28293;50.930;3.464;2023-08-31T15:18:50;20.60;62.60
42683;DHT22;28293;50.930;3.464;2023-08-31T15:21:16;20.60;62.50
42683;DHT22;28293;50.930;3.464;2023-08-31T15:23:43;20.60;63.30
42683;DHT22;28293;50.930;3.464;2023-08-31T15:26:10;20.50;62.80
42683;DHT22;28293;50.930;3.464;2023-08-31T15:28:36;20.60;63.10
42683;DHT22;28293;50.930;3.464;2023-08-31T15:31:02;20.60;63.70
42683;DHT22;28293;50.930;3.464;2023-08-31T15:33:27;20.50;65.30
42683;DHT22;28293;50.930;3.464;2023-08-31T15:36:04;20.50;66.10
42683;DHT22;28293;50.930;3.464;2023-08-31T15:38:30;20.30;66.80
42683;DHT22;28293;50.930;3.464;2023-08-31T15:40:56;20.20;66.90
42683;DHT22;28293;50.930;3.464;2023-08-31T15:43:22;20.10;67.90
42683;DHT22;28293;50.930;3.464;2023-08-31T15:45:48;20.10;68.20